Terminal Aerodrome Forecast
Issued by NWS Charleston, WV

Current Version | Previous Version | Graphics & Text | Print | Product List | Glossary On
Versions: 1 2 3 4 5 6 7 8 9 10 11 12 13 14 15 16 17 18 19 20 21 22 23 24 25 26 27
000
FTUS41 KRLX 271400 AAB
TAFBKW
TAF AMD
KBKW 271459Z 2715/2812 31008KT P6SM SCT050
     FM272100 32008KT P6SM OVC020
     FM280100 32008KT P6SM OVC018
     FM280700 32006KT P6SM BKN025
     FM281100 32005KT P6SM SKC=

USA.gov is the U.S. government's official web portal to all federal, state and local government web resources and services.